sensor_id;sensor_type;location;lat;lon;timestamp;pressure;altitude;pressure_sealevel;temperature;humidity
42725;BME280;28369;44.046;23.014;2023-05-24T00:01:53;100837.53;;;25.69;51.22
42725;BME280;28369;44.046;23.014;2023-05-24T00:04:21;100854.22;;;25.78;51.28
42725;BME280;28369;44.046;23.014;2023-05-24T00:06:46;100847.09;;;25.65;51.84
42725;BME280;28369;44.046;23.014;2023-05-24T00:09:12;100761.91;;;25.15;51.71
42725;BME280;28369;44.046;23.014;2023-05-24T00:11:38;100837.75;;;25.49;52.44
42725;BME280;28369;44.046;23.014;2023-05-24T00:14:03;100847.22;;;25.52;52.40
42725;BME280;28369;44.046;23.014;2023-05-24T00:16:29;100848.13;;;25.21;53.32
42725;BME280;28369;44.046;23.014;2023-05-24T00:18:56;100860.94;;;25.25;53.51
42725;BME280;28369;44.046;23.014;2023-05-24T00:21:23;100845.34;;;25.09;53.78
42725;BME280;28369;44.046;23.014;2023-05-24T00:23:49;100817.47;;;25.03;53.81
42725;BME280;28369;44.046;23.014;2023-05-24T00:26:16;100826.56;;;25.02;53.87
42725;BME280;28369;44.046;23.014;2023-05-24T00:28:41;100847.28;;;25.27;53.44
42725;BME280;28369;44.046;23.014;2023-05-24T00:31:07;100826.56;;;25.02;53.10
42725;BME280;28369;44.046;23.014;2023-05-24T00:33:32;100845.19;;;25.04;53.42
42725;BME280;28369;44.046;23.014;2023-05-24T00:35:58;100851.22;;;25.24;53.08
42725;BME280;28369;44.046;23.014;2023-05-24T00:38:27;100838.34;;;25.26;52.74
42725;BME280;28369;44.046;23.014;2023-05-24T00:40:53;100849.19;;;25.45;52.48
42725;BME280;28369;44.046;23.014;2023-05-24T00:43:21;100839.72;;;25.61;51.63
42725;BME280;28369;44.046;23.014;2023-05-24T00:45:46;100862.00;;;25.68;51.61
42725;BME280;28369;44.046;23.014;2023-05-24T00:48:12;100803.75;;;25.55;50.91
42725;BME280;28369;44.046;23.014;2023-05-24T00:50:39;100788.13;;;25.45;50.81
42725;BME280;28369;44.046;23.014;2023-05-24T00:53:05;100840.75;;;25.60;51.30
42725;BME280;28369;44.046;23.014;2023-05-24T00:55:32;100805.03;;;25.27;51.34
42725;BME280;28369;44.046;23.014;2023-05-24T00:57:59;100822.50;;;25.43;51.09
42725;BME280;28369;44.046;23.014;2023-05-24T01:00:26;100823.63;;;25.54;50.50
42725;BME280;28369;44.046;23.014;2023-05-24T01:02:52;100806.69;;;25.28;50.80
42725;BME280;28369;44.046;23.014;2023-05-24T01:05:19;100838.81;;;25.23;51.49
42725;BME280;28369;44.046;23.014;2023-05-24T01:13:03;100853.06;;;24.73;53.35
42725;BME280;28369;44.046;23.014;2023-05-24T01:18:55;100847.34;;;24.24;54.63
42725;BME280;28369;44.046;23.014;2023-05-24T01:29:25;100831.59;;;23.83;56.16
42725;BME280;28369;44.046;23.014;2023-05-24T01:31:51;100851.25;;;24.28;55.57
42725;BME280;28369;44.046;23.014;2023-05-24T01:34:17;100828.25;;;24.39;54.77
42725;BME280;28369;44.046;23.014;2023-05-24T01:36:47;100814.63;;;24.41;53.89
42725;BME280;28369;44.046;23.014;2023-05-24T01:39:12;100832.81;;;24.71;53.53
42725;BME280;28369;44.046;23.014;2023-05-24T01:41:46;100731.81;;;24.31;52.83
42725;BME280;28369;44.046;23.014;2023-05-24T01:47:14;100847.91;;;25.04;51.97
42725;BME280;28369;44.046;23.014;2023-05-24T01:49:49;100837.13;;;25.04;51.64
42725;BME280;28369;44.046;23.014;2023-05-24T01:52:16;100818.81;;;24.30;53.31
42725;BME280;28369;44.046;23.014;2023-05-24T01:54:50;100855.28;;;24.06;55.07
42725;BME280;28369;44.046;23.014;2023-05-24T01:57:18;100818.31;;;24.08;55.30
42725;BME280;28369;44.046;23.014;2023-05-24T01:59:46;100822.72;;;23.89;55.48
42725;BME280;28369;44.046;23.014;2023-05-24T02:02:12;100810.16;;;23.69;56.15
42725;BME280;28369;44.046;23.014;2023-05-24T02:04:37;100815.06;;;23.79;56.04
42725;BME280;28369;44.046;23.014;2023-05-24T02:07:04;100833.09;;;23.65;57.08
42725;BME280;28369;44.046;23.014;2023-05-24T02:09:29;100824.91;;;23.40;57.96
42725;BME280;28369;44.046;23.014;2023-05-24T02:11:54;100821.34;;;23.59;56.94
42725;BME280;28369;44.046;23.014;2023-05-24T02:14:20;100841.19;;;24.17;55.54
42725;BME280;28369;44.046;23.014;2023-05-24T02:16:46;100778.09;;;23.88;55.34
42725;BME280;28369;44.046;23.014;2023-05-24T02:19:15;100817.03;;;24.49;54.17
42725;BME280;28369;44.046;23.014;2023-05-24T02:21:41;100814.06;;;24.57;53.81
42725;BME280;28369;44.046;23.014;2023-05-24T02:24:07;100718.88;;;24.21;53.31
42725;BME280;28369;44.046;23.014;2023-05-24T02:26:36;100840.41;;;25.06;53.03
42725;BME280;28369;44.046;23.014;2023-05-24T02:29:01;100823.16;;;24.63;53.73
42725;BME280;28369;44.046;23.014;2023-05-24T02:31:27;100837.34;;;24.38;55.11
42725;BME280;28369;44.046;23.014;2023-05-24T02:33:57;100817.00;;;24.17;55.55
42725;BME280;28369;44.046;23.014;2023-05-24T02:36:23;100840.19;;;24.11;55.96
42725;BME280;28369;44.046;23.014;2023-05-24T02:38:52;100808.09;;;24.23;55.18
42725;BME280;28369;44.046;23.014;2023-05-24T02:41:18;100848.69;;;24.40;54.91
42725;BME280;28369;44.046;23.014;2023-05-24T02:43:46;100801.91;;;24.23;54.21
42725;BME280;28369;44.046;23.014;2023-05-24T02:46:13;100845.72;;;24.55;54.34
42725;BME280;28369;44.046;23.014;2023-05-24T02:48:39;100839.09;;;24.90;53.00
42725;BME280;28369;44.046;23.014;2023-05-24T02:51:04;100829.06;;;25.04;52.27
42725;BME280;28369;44.046;23.014;2023-05-24T02:53:31;100863.69;;;25.44;51.59
42725;BME280;28369;44.046;23.014;2023-05-24T02:55:58;100837.38;;;25.21;51.43
42725;BME280;28369;44.046;23.014;2023-05-24T02:58:23;100851.75;;;25.08;51.58
42725;BME280;28369;44.046;23.014;2023-05-24T03:00:49;100863.03;;;24.98;51.59
42725;BME280;28369;44.046;23.014;2023-05-24T03:03:15;100822.28;;;24.69;51.60
42725;BME280;28369;44.046;23.014;2023-05-24T03:05:40;100870.09;;;25.17;51.13
42725;BME280;28369;44.046;23.014;2023-05-24T03:08:06;100846.09;;;25.16;50.26
42725;BME280;28369;44.046;23.014;2023-05-24T03:10:32;100846.69;;;24.99;50.26
42725;BME280;28369;44.046;23.014;2023-05-24T03:12:57;100830.81;;;24.91;49.81
42725;BME280;28369;44.046;23.014;2023-05-24T03:15:23;100856.66;;;25.17;49.52
42725;BME280;28369;44.046;23.014;2023-05-24T03:17:50;100865.81;;;25.10;49.70
42725;BME280;28369;44.046;23.014;2023-05-24T03:20:16;100870.38;;;25.09;49.84
42725;BME280;28369;44.046;23.014;2023-05-24T03:22:42;100849.59;;;24.98;50.26
42725;BME280;28369;44.046;23.014;2023-05-24T03:25:08;100856.00;;;24.97;50.82
42725;BME280;28369;44.046;23.014;2023-05-24T03:27:35;100852.16;;;25.11;50.28
42725;BME280;28369;44.046;23.014;2023-05-24T03:30:00;100869.13;;;25.37;50.18
42725;BME280;28369;44.046;23.014;2023-05-24T03:32:26;100858.53;;;25.42;50.13
42725;BME280;28369;44.046;23.014;2023-05-24T03:34:51;100846.47;;;25.45;49.73
42725;BME280;28369;44.046;23.014;2023-05-24T03:37:17;100822.13;;;25.40;49.03
42725;BME280;28369;44.046;23.014;2023-05-24T03:39:42;100845.84;;;25.49;48.65
42725;BME280;28369;44.046;23.014;2023-05-24T03:42:08;100866.84;;;25.78;47.97
42725;BME280;28369;44.046;23.014;2023-05-24T03:44:33;100843.16;;;25.86;47.66
42725;BME280;28369;44.046;23.014;2023-05-24T03:46:59;100843.56;;;26.51;46.39
42725;BME280;28369;44.046;23.014;2023-05-24T03:49:24;100845.19;;;26.82;45.34
42725;BME280;28369;44.046;23.014;2023-05-24T03:51:50;100849.69;;;27.24;44.38
42725;BME280;28369;44.046;23.014;2023-05-24T03:54:15;100862.78;;;27.80;43.58
42725;BME280;28369;44.046;23.014;2023-05-24T03:56:42;100852.91;;;27.85;42.78
42725;BME280;28369;44.046;23.014;2023-05-24T03:59:07;100876.00;;;28.17;42.37
42725;BME280;28369;44.046;23.014;2023-05-24T04:01:33;100884.34;;;28.44;42.33
42725;BME280;28369;44.046;23.014;2023-05-24T04:04:01;100873.56;;;28.32;42.49
42725;BME280;28369;44.046;23.014;2023-05-24T04:06:27;100851.09;;;28.60;41.20
42725;BME280;28369;44.046;23.014;2023-05-24T04:08:57;100870.84;;;28.61;41.17
42725;BME280;28369;44.046;23.014;2023-05-24T04:11:23;100765.34;;;27.17;42.50
42725;BME280;28369;44.046;23.014;2023-05-24T04:13:52;100916.56;;;27.69;42.74
42725;BME280;28369;44.046;23.014;2023-05-24T04:16:20;100913.69;;;27.05;44.44
42725;BME280;28369;44.046;23.014;2023-05-24T04:18:49;100933.94;;;26.84;45.11
42725;BME280;28369;44.046;23.014;2023-05-24T04:21:15;100928.28;;;26.55;45.63
42725;BME280;28369;44.046;23.014;2023-05-24T04:23:40;100909.63;;;26.42;45.71
42725;BME280;28369;44.046;23.014;2023-05-24T04:26:06;100935.06;;;26.46;46.20
42725;BME280;28369;44.046;23.014;2023-05-24T04:28:32;100908.41;;;26.37;46.25
42725;BME280;28369;44.046;23.014;2023-05-24T04:30:58;100933.84;;;26.90;45.66
42725;BME280;28369;44.046;23.014;2023-05-24T04:33:23;100904.25;;;27.85;43.86
42725;BME280;28369;44.046;23.014;2023-05-24T04:35:49;100911.53;;;26.83;45.20
42725;BME280;28369;44.046;23.014;2023-05-24T04:38:14;100922.19;;;26.29;46.69
42725;BME280;28369;44.046;23.014;2023-05-24T04:40:40;100912.09;;;26.73;46.28
42725;BME280;28369;44.046;23.014;2023-05-24T04:43:05;100903.00;;;26.56;46.54
42725;BME280;28369;44.046;23.014;2023-05-24T04:45:33;100915.25;;;27.24;45.54
42725;BME280;28369;44.046;23.014;2023-05-24T04:47:59;100943.75;;;28.56;43.58
42725;BME280;28369;44.046;23.014;2023-05-24T04:50:24;100877.59;;;29.43;41.59
42725;BME280;28369;44.046;23.014;2023-05-24T04:52:50;100942.09;;;30.74;40.19
42725;BME280;28369;44.046;23.014;2023-05-24T04:55:15;100927.66;;;29.07;42.05
42725;BME280;28369;44.046;23.014;2023-05-24T04:57:41;100930.34;;;30.41;39.78
42725;BME280;28369;44.046;23.014;2023-05-24T05:00:07;100936.59;;;29.80;40.48
42725;BME280;28369;44.046;23.014;2023-05-24T05:02:32;100929.69;;;29.34;41.87
42725;BME280;28369;44.046;23.014;2023-05-24T05:04:58;100950.91;;;29.76;41.97
42725;BME280;28369;44.046;23.014;2023-05-24T05:07:24;100936.91;;;29.62;41.69
42725;BME280;28369;44.046;23.014;2023-05-24T05:09:49;100915.44;;;29.77;41.38
42725;BME280;28369;44.046;23.014;2023-05-24T05:12:15;100804.81;;;28.57;41.79
42725;BME280;28369;44.046;23.014;2023-05-24T05:14:41;100939.47;;;29.91;41.46
42725;BME280;28369;44.046;23.014;2023-05-24T05:17:07;100938.38;;;29.87;40.86
42725;BME280;28369;44.046;23.014;2023-05-24T05:19:32;100925.28;;;29.84;41.36
42725;BME280;28369;44.046;23.014;2023-05-24T05:22:00;100917.69;;;29.63;41.57
42725;BME280;28369;44.046;23.014;2023-05-24T05:24:26;100930.13;;;29.81;41.83
42725;BME280;28369;44.046;23.014;2023-05-24T05:26:51;100938.53;;;30.02;41.50
42725;BME280;28369;44.046;23.014;2023-05-24T05:29:17;100945.78;;;29.96;42.13
42725;BME280;28369;44.046;23.014;2023-05-24T05:31:42;100940.81;;;30.10;41.71
42725;BME280;28369;44.046;23.014;2023-05-24T05:34:08;100933.00;;;29.92;41.73
42725;BME280;28369;44.046;23.014;2023-05-24T05:36:35;100913.78;;;29.76;41.60
42725;BME280;28369;44.046;23.014;2023-05-24T05:39:06;100930.38;;;29.80;41.77
42725;BME280;28369;44.046;23.014;2023-05-24T05:41:35;100864.88;;;29.61;41.55
42725;BME280;28369;44.046;23.014;2023-05-24T05:44:01;100941.31;;;30.07;41.98
42725;BME280;28369;44.046;23.014;2023-05-24T05:46:26;100954.00;;;30.46;41.20
42725;BME280;28369;44.046;23.014;2023-05-24T05:48:52;100935.16;;;30.89;40.17
42725;BME280;28369;44.046;23.014;2023-05-24T05:51:17;100951.53;;;30.99;39.92
42725;BME280;28369;44.046;23.014;2023-05-24T05:53:43;100938.09;;;31.52;39.78
42725;BME280;28369;44.046;23.014;2023-05-24T05:56:08;100939.47;;;32.81;37.34
42725;BME280;28369;44.046;23.014;2023-05-24T05:58:34;100942.66;;;32.52;37.51
42725;BME280;28369;44.046;23.014;2023-05-24T06:00:59;100916.84;;;31.86;37.88
42725;BME280;28369;44.046;23.014;2023-05-24T06:03:25;100943.97;;;31.76;38.50
42725;BME280;28369;44.046;23.014;2023-05-24T06:05:50;100958.75;;;31.53;38.86
42725;BME280;28369;44.046;23.014;2023-05-24T06:08:16;100941.66;;;31.52;39.36
42725;BME280;28369;44.046;23.014;2023-05-24T06:10:42;100952.84;;;31.24;38.43
42725;BME280;28369;44.046;23.014;2023-05-24T06:13:10;100970.44;;;31.16;40.36
42725;BME280;28369;44.046;23.014;2023-05-24T06:15:35;100903.25;;;30.68;37.78
42725;BME280;28369;44.046;23.014;2023-05-24T06:18:02;100945.88;;;31.00;38.65
42725;BME280;28369;44.046;23.014;2023-05-24T06:20:27;100977.13;;;31.35;38.76
42725;BME280;28369;44.046;23.014;2023-05-24T06:22:53;100944.81;;;31.39;38.03
42725;BME280;28369;44.046;23.014;2023-05-24T06:25:19;100927.22;;;31.09;38.24
42725;BME280;28369;44.046;23.014;2023-05-24T06:27:47;100949.66;;;31.32;38.09
42725;BME280;28369;44.046;23.014;2023-05-24T06:30:13;100960.56;;;31.37;39.21
42725;BME280;28369;44.046;23.014;2023-05-24T06:32:38;100953.16;;;31.65;36.99
42725;BME280;28369;44.046;23.014;2023-05-24T06:35:04;100941.66;;;31.52;37.76
42725;BME280;28369;44.046;23.014;2023-05-24T06:37:30;100943.53;;;31.90;37.77
42725;BME280;28369;44.046;23.014;2023-05-24T06:39:58;100943.13;;;31.70;37.02
42725;BME280;28369;44.046;23.014;2023-05-24T06:42:24;100980.09;;;32.19;37.21
42725;BME280;28369;44.046;23.014;2023-05-24T06:44:50;100931.06;;;32.09;37.21
42725;BME280;28369;44.046;23.014;2023-05-24T06:47:15;100940.13;;;32.20;37.41
42725;BME280;28369;44.046;23.014;2023-05-24T06:49:41;100955.34;;;32.16;36.54
42725;BME280;28369;44.046;23.014;2023-05-24T06:52:06;100976.66;;;32.50;37.50
42725;BME280;28369;44.046;23.014;2023-05-24T06:54:32;100942.66;;;32.58;38.10
42725;BME280;28369;44.046;23.014;2023-05-24T06:57:01;100958.72;;;32.54;36.55
42725;BME280;28369;44.046;23.014;2023-05-24T06:59:28;100982.09;;;32.55;36.55
42725;BME280;28369;44.046;23.014;2023-05-24T07:01:53;100913.78;;;32.26;36.19
42725;BME280;28369;44.046;23.014;2023-05-24T07:04:23;100972.59;;;32.58;36.68
42725;BME280;28369;44.046;23.014;2023-05-24T07:06:49;100966.56;;;32.40;36.13
42725;BME280;28369;44.046;23.014;2023-05-24T07:09:16;100970.09;;;32.41;35.78
42725;BME280;28369;44.046;23.014;2023-05-24T07:11:42;100955.53;;;32.09;35.72
42725;BME280;28369;44.046;23.014;2023-05-24T07:14:07;100969.78;;;32.27;36.31
42725;BME280;28369;44.046;23.014;2023-05-24T07:16:33;100943.97;;;31.76;36.21
42725;BME280;28369;44.046;23.014;2023-05-24T07:18:58;100925.66;;;31.18;36.68
42725;BME280;28369;44.046;23.014;2023-05-24T07:21:24;100962.81;;;31.93;36.69
42725;BME280;28369;44.046;23.014;2023-05-24T07:23:50;100988.50;;;32.18;37.90
42725;BME280;28369;44.046;23.014;2023-05-24T07:26:15;100956.97;;;32.22;37.84
42725;BME280;28369;44.046;23.014;2023-05-24T07:28:41;100957.84;;;32.33;36.24
42725;BME280;28369;44.046;23.014;2023-05-24T07:31:10;100985.59;;;32.45;38.20
42725;BME280;28369;44.046;23.014;2023-05-24T07:33:36;100947.94;;;32.06;37.40
42725;BME280;28369;44.046;23.014;2023-05-24T07:36:03;100784.41;;;31.03;37.31
42725;BME280;28369;44.046;23.014;2023-05-24T07:38:32;100970.94;;;32.41;36.78
42725;BME280;28369;44.046;23.014;2023-05-24T07:40:59;100959.50;;;32.44;36.70
42725;BME280;28369;44.046;23.014;2023-05-24T07:43:26;100970.28;;;33.23;37.41
42725;BME280;28369;44.046;23.014;2023-05-24T07:45:58;100920.41;;;32.81;35.85
42725;BME280;28369;44.046;23.014;2023-05-24T07:48:23;100614.06;;;31.41;35.43
42725;BME280;28369;44.046;23.014;2023-05-24T07:50:54;100857.78;;;32.66;34.74
42725;BME280;28369;44.046;23.014;2023-05-24T07:53:20;100993.97;;;31.75;37.63
42725;BME280;28369;44.046;23.014;2023-05-24T07:55:47;100967.78;;;33.11;35.97
42725;BME280;28369;44.046;23.014;2023-05-24T07:58:12;100995.53;;;33.70;34.86
42725;BME280;28369;44.046;23.014;2023-05-24T08:00:38;100966.59;;;34.00;33.32
42725;BME280;28369;44.046;23.014;2023-05-24T08:03:04;100980.28;;;33.79;34.11
42725;BME280;28369;44.046;23.014;2023-05-24T08:05:30;100960.16;;;33.44;34.80
42725;BME280;28369;44.046;23.014;2023-05-24T08:07:56;100993.91;;;33.79;34.13
42725;BME280;28369;44.046;23.014;2023-05-24T08:10:22;100998.41;;;34.20;34.58
42725;BME280;28369;44.046;23.014;2023-05-24T08:12:48;100996.63;;;33.64;35.05
42725;BME280;28369;44.046;23.014;2023-05-24T08:15:19;100975.44;;;33.40;35.05
42725;BME280;28369;44.046;23.014;2023-05-24T08:17:44;100979.91;;;34.06;34.75
42725;BME280;28369;44.046;23.014;2023-05-24T08:20:11;100987.66;;;33.06;35.60
42725;BME280;28369;44.046;23.014;2023-05-24T08:22:41;100969.69;;;32.95;35.85
42725;BME280;28369;44.046;23.014;2023-05-24T08:25:07;100931.25;;;31.82;36.26
42725;BME280;28369;44.046;23.014;2023-05-24T08:27:33;100952.25;;;32.96;36.26
42725;BME280;28369;44.046;23.014;2023-05-24T08:29:59;100978.09;;;33.81;34.71
42725;BME280;28369;44.046;23.014;2023-05-24T08:32:24;100973.13;;;32.49;35.93
42725;BME280;28369;44.046;23.014;2023-05-24T08:34:49;100970.53;;;33.11;34.89
42725;BME280;28369;44.046;23.014;2023-05-24T08:37:15;100987.31;;;32.62;36.30
42725;BME280;28369;44.046;23.014;2023-05-24T08:39:44;100982.06;;;31.86;37.38
42725;BME280;28369;44.046;23.014;2023-05-24T08:42:10;100992.41;;;32.37;36.34
42725;BME280;28369;44.046;23.014;2023-05-24T08:45:02;100991.16;;;32.76;37.00
42725;BME280;28369;44.046;23.014;2023-05-24T08:47:29;100934.28;;;33.11;35.14
42725;BME280;28369;44.046;23.014;2023-05-24T08:49:55;100980.81;;;33.71;34.43
42725;BME280;28369;44.046;23.014;2023-05-24T08:52:22;100975.38;;;33.81;34.57
42725;BME280;28369;44.046;23.014;2023-05-24T08:54:48;100949.47;;;33.73;35.03
42725;BME280;28369;44.046;23.014;2023-05-24T08:57:14;100977.34;;;33.24;34.61
42725;BME280;28369;44.046;23.014;2023-05-24T08:59:41;100976.22;;;33.51;34.50
42725;BME280;28369;44.046;23.014;2023-05-24T09:02:10;100976.72;;;33.89;32.67
42725;BME280;28369;44.046;23.014;2023-05-24T09:04:41;100980.31;;;33.53;34.21
42725;BME280;28369;44.046;23.014;2023-05-24T09:07:09;100639.66;;;31.92;34.66
42725;BME280;28369;44.046;23.014;2023-05-24T09:09:37;100967.34;;;34.10;35.38
42725;BME280;28369;44.046;23.014;2023-05-24T09:12:10;100973.47;;;33.66;34.74
42725;BME280;28369;44.046;23.014;2023-05-24T09:14:45;100933.94;;;33.79;35.03
42725;BME280;28369;44.046;23.014;2023-05-24T09:17:13;100970.84;;;34.21;34.56
42725;BME280;28369;44.046;23.014;2023-05-24T09:19:45;100992.09;;;34.30;33.82
42725;BME280;28369;44.046;23.014;2023-05-24T09:22:14;100961.13;;;34.00;33.32
42725;BME280;28369;44.046;23.014;2023-05-24T09:24:46;100952.63;;;34.06;31.51
42725;BME280;28369;44.046;23.014;2023-05-24T09:27:14;100882.38;;;33.93;32.15
42725;BME280;28369;44.046;23.014;2023-05-24T09:29:41;100992.41;;;34.23;32.57
42725;BME280;28369;44.046;23.014;2023-05-24T09:32:08;100930.97;;;32.67;32.93
42725;BME280;28369;44.046;23.014;2023-05-24T09:34:38;100890.47;;;32.92;33.27
42725;BME280;28369;44.046;23.014;2023-05-24T09:37:03;100976.22;;;33.51;33.59
42725;BME280;28369;44.046;23.014;2023-05-24T09:39:39;100925.56;;;33.50;32.69
42725;BME280;28369;44.046;23.014;2023-05-24T09:42:06;100918.94;;;33.87;33.13
42725;BME280;28369;44.046;23.014;2023-05-24T09:44:34;100944.06;;;34.39;31.79
42725;BME280;28369;44.046;23.014;2023-05-24T09:47:05;100935.28;;;34.47;32.51
42725;BME280;28369;44.046;23.014;2023-05-24T09:49:31;100938.03;;;34.42;31.10
42725;BME280;28369;44.046;23.014;2023-05-24T09:51:57;100945.97;;;33.52;32.45
42725;BME280;28369;44.046;23.014;2023-05-24T09:54:23;100974.41;;;34.22;32.05
42725;BME280;28369;44.046;23.014;2023-05-24T09:56:51;100880.28;;;34.19;30.93
42725;BME280;28369;44.046;23.014;2023-05-24T09:59:18;100934.66;;;34.55;30.27
42725;BME280;28369;44.046;23.014;2023-05-24T10:01:44;100967.41;;;35.00;30.31
42725;BME280;28369;44.046;23.014;2023-05-24T10:04:10;100901.69;;;34.52;31.73
42725;BME280;28369;44.046;23.014;2023-05-24T10:06:36;100956.06;;;35.17;31.59
42725;BME280;28369;44.046;23.014;2023-05-24T10:09:03;100956.47;;;35.35;31.11
42725;BME280;28369;44.046;23.014;2023-05-24T10:11:34;100956.50;;;35.29;31.54
42725;BME280;28369;44.046;23.014;2023-05-24T10:14:04;100868.19;;;35.10;31.00
42725;BME280;28369;44.046;23.014;2023-05-24T10:16:31;100927.53;;;35.28;32.29
42725;BME280;28369;44.046;23.014;2023-05-24T10:18:58;100943.91;;;35.34;32.63
42725;BME280;28369;44.046;23.014;2023-05-24T10:21:23;100899.97;;;35.54;31.12
42725;BME280;28369;44.046;23.014;2023-05-24T10:23:56;100663.38;;;33.98;29.84
42725;BME280;28369;44.046;23.014;2023-05-24T10:26:23;100943.91;;;35.87;29.41
42725;BME280;28369;44.046;23.014;2023-05-24T10:28:54;100941.38;;;35.67;29.86
42725;BME280;28369;44.046;23.014;2023-05-24T10:31:24;100947.00;;;35.22;32.00
42725;BME280;28369;44.046;23.014;2023-05-24T10:33:55;100914.84;;;35.43;31.90
42725;BME280;28369;44.046;23.014;2023-05-24T10:36:22;100925.78;;;35.43;33.53
42725;BME280;28369;44.046;23.014;2023-05-24T10:38:50;100897.16;;;35.59;30.04
42725;BME280;28369;44.046;23.014;2023-05-24T10:41:17;100903.03;;;35.72;29.64
42725;BME280;28369;44.046;23.014;2023-05-24T10:43:45;100928.88;;;35.85;30.19
42725;BME280;28369;44.046;23.014;2023-05-24T10:46:15;100930.16;;;35.09;29.28
42725;BME280;28369;44.046;23.014;2023-05-24T10:48:41;100922.66;;;35.55;29.70
42725;BME280;28369;44.046;23.014;2023-05-24T10:51:35;100925.63;;;35.83;30.00
42725;BME280;28369;44.046;23.014;2023-05-24T10:54:21;100899.97;;;35.25;31.34
42725;BME280;28369;44.046;23.014;2023-05-24T10:56:51;100890.94;;;35.29;28.56
42725;BME280;28369;44.046;23.014;2023-05-24T10:59:22;100765.66;;;34.64;29.17
42725;BME280;28369;44.046;23.014;2023-05-24T11:01:54;100814.84;;;35.42;30.24
42725;BME280;28369;44.046;23.014;2023-05-24T11:04:20;100906.31;;;36.17;28.74
42725;BME280;28369;44.046;23.014;2023-05-24T11:06:56;100545.25;;;33.78;27.67
42725;BME280;28369;44.046;23.014;2023-05-24T11:09:29;100824.69;;;35.62;27.09
42725;BME280;28369;44.046;23.014;2023-05-24T11:12:00;100871.78;;;35.78;26.87
42725;BME280;28369;44.046;23.014;2023-05-24T11:14:34;100835.44;;;35.34;25.78
42725;BME280;28369;44.046;23.014;2023-05-24T11:17:00;100770.03;;;34.94;25.13
42725;BME280;28369;44.046;23.014;2023-05-24T11:21:57;100897.28;;;35.97;26.75
42725;BME280;28369;44.046;23.014;2023-05-24T11:24:25;100910.50;;;35.90;26.81
42725;BME280;28369;44.046;23.014;2023-05-24T11:26:50;100889.38;;;36.15;25.78
42725;BME280;28369;44.046;23.014;2023-05-24T11:29:17;100881.31;;;36.05;25.15
42725;BME280;28369;44.046;23.014;2023-05-24T11:31:52;100908.69;;;35.56;26.50
42725;BME280;28369;44.046;23.014;2023-05-24T11:34:21;100898.16;;;35.93;26.03
42725;BME280;28369;44.046;23.014;2023-05-24T11:36:48;100892.84;;;35.77;27.24
42725;BME280;28369;44.046;23.014;2023-05-24T11:39:14;100550.66;;;33.83;24.78
42725;BME280;28369;44.046;23.014;2023-05-24T11:41:40;100869.69;;;35.94;25.61
42725;BME280;28369;44.046;23.014;2023-05-24T11:44:07;100894.94;;;36.10;24.68
42725;BME280;28369;44.046;23.014;2023-05-24T11:46:33;100871.31;;;36.14;27.14
42725;BME280;28369;44.046;23.014;2023-05-24T11:49:03;100855.44;;;36.16;26.03
42725;BME280;28369;44.046;23.014;2023-05-24T11:51:31;100891.44;;;36.61;26.02
42725;BME280;28369;44.046;23.014;2023-05-24T11:53:57;100873.09;;;36.62;24.66
42725;BME280;28369;44.046;23.014;2023-05-24T11:56:28;100872.34;;;36.56;25.83
42725;BME280;28369;44.046;23.014;2023-05-24T11:59:14;100855.13;;;36.56;25.18
42725;BME280;28369;44.046;23.014;2023-05-24T12:01:40;100856.53;;;36.86;27.14
42725;BME280;28369;44.046;23.014;2023-05-24T12:04:06;100863.06;;;36.71;25.98
42725;BME280;28369;44.046;23.014;2023-05-24T12:06:40;100876.75;;;36.71;26.48
42725;BME280;28369;44.046;23.014;2023-05-24T12:09:07;100875.47;;;36.11;24.84
42725;BME280;28369;44.046;23.014;2023-05-24T12:11:45;100879.78;;;36.89;24.48
42725;BME280;28369;44.046;23.014;2023-05-24T12:14:13;100871.16;;;36.95;24.02
42725;BME280;28369;44.046;23.014;2023-05-24T12:16:39;100849.00;;;36.78;25.75
42725;BME280;28369;44.046;23.014;2023-05-24T12:19:06;100837.47;;;36.81;24.83
42725;BME280;28369;44.046;23.014;2023-05-24T12:21:31;100871.28;;;37.18;25.13
42725;BME280;28369;44.046;23.014;2023-05-24T12:24:17;100874.19;;;37.41;24.53
42725;BME280;28369;44.046;23.014;2023-05-24T12:26:47;100869.00;;;37.39;23.58
42725;BME280;28369;44.046;23.014;2023-05-24T12:29:13;100861.34;;;37.64;23.16
42725;BME280;28369;44.046;23.014;2023-05-24T12:31:45;100850.81;;;37.29;23.40
42725;BME280;28369;44.046;23.014;2023-05-24T12:34:12;100855.16;;;37.58;24.69
42725;BME280;28369;44.046;23.014;2023-05-24T12:36:38;100860.06;;;37.61;23.95
42725;BME280;28369;44.046;23.014;2023-05-24T12:39:36;100856.22;;;37.34;22.10
42725;BME280;28369;44.046;23.014;2023-05-24T12:42:03;100843.81;;;37.23;22.48
42725;BME280;28369;44.046;23.014;2023-05-24T12:44:35;100824.41;;;37.06;25.50
42725;BME280;28369;44.046;23.014;2023-05-24T12:47:02;100842.59;;;37.43;23.96
42725;BME280;28369;44.046;23.014;2023-05-24T12:49:28;100824.81;;;37.13;25.80
42725;BME280;28369;44.046;23.014;2023-05-24T12:51:58;100806.19;;;37.29;24.72
42725;BME280;28369;44.046;23.014;2023-05-24T12:54:27;100842.28;;;37.17;22.85
42725;BME280;28369;44.046;23.014;2023-05-24T12:56:54;100753.44;;;36.62;23.64
42725;BME280;28369;44.046;23.014;2023-05-24T12:59:20;100722.72;;;36.52;23.92
42725;BME280;28369;44.046;23.014;2023-05-24T13:01:46;100816.13;;;37.39;22.27
42725;BME280;28369;44.046;23.014;2023-05-24T13:04:17;100830.72;;;37.48;23.52